In Rescue
 
Open Full Screen Window  High Contrast Mode
Wind Gusting 20 knots
17
November 14, 2019 1:19 PM CST
Weather Information
Wind Direction
  330 °
Wind Speed
  17 kt (20 mph)
Wind Gust
  20 kt (23 mph)
Altimeter
30.01 in
Visibility
10 SM
Temperature
02° C
36° F
Dewpoint
-01° C
30° F
Humidity
81%
1hr Rain Fall
00.00 in.
24hr Rain Fall
00.00 in.
Sky Condition
Overcast @ 1,600 ft
MVFR

METAR KHCO 141919Z AUTO 33017G20KT 10SM OVC016 02/M01 A3001 RMK AO2

FAA Disclaimer: The data displayed is for advisory purposes only and is not to be used for flight planning or operations.